createdAt,value
2023-03-06T00:01:00.814Z,73.72
2023-03-06T00:03:28.590Z,73.84
2023-03-06T00:05:57.506Z,75.37
2023-03-06T00:08:26.595Z,76.61
2023-03-06T00:10:54.707Z,75.47
2023-03-06T00:13:22.418Z,76.84
2023-03-06T00:15:49.773Z,75.98
2023-03-06T00:18:17.027Z,75.90
2023-03-06T00:20:44.344Z,74.05
2023-03-06T00:23:12.477Z,73.84
2023-03-06T00:25:43.132Z,74.88
2023-03-06T00:28:12.324Z,75.20
2023-03-06T00:30:40.069Z,74.39
2023-03-06T00:33:07.843Z,73.52
2023-03-06T00:35:35.203Z,73.50
2023-03-06T00:38:05.287Z,72.38
2023-03-06T00:40:33.584Z,73.07
2023-03-06T00:43:01.094Z,72.66
2023-03-06T00:45:28.358Z,74.31
2023-03-06T00:47:55.654Z,74.73
2023-03-06T00:50:23.020Z,74.34
2023-03-06T00:52:50.417Z,74.14
2023-03-06T00:55:17.807Z,73.68
2023-03-06T00:57:45.095Z,72.91
2023-03-06T01:00:13.186Z,72.73
2023-03-06T01:02:41.339Z,72.90
2023-03-06T01:05:09.693Z,72.43
2023-03-06T01:07:37.996Z,72.32
2023-03-06T01:10:08.150Z,72.02
2023-03-06T01:12:35.670Z,73.79
2023-03-06T01:15:04.044Z,73.18
2023-03-06T01:17:31.405Z,73.81
2023-03-06T01:19:58.838Z,73.91
2023-03-06T01:22:26.313Z,73.57
2023-03-06T01:24:53.614Z,72.66
2023-03-06T01:27:22.050Z,73.24
2023-03-06T01:29:49.547Z,73.82
2023-03-06T01:32:17.165Z,73.45
2023-03-06T01:34:44.495Z,74.90
2023-03-06T01:37:11.841Z,74.29
2023-03-06T01:39:39.294Z,74.93
2023-03-06T01:42:07.080Z,75.21
2023-03-06T01:44:34.444Z,75.80
2023-03-06T01:47:02.420Z,75.23
2023-03-06T01:49:35.543Z,75.54
2023-03-06T01:52:15.213Z,74.23
2023-03-06T01:54:45.766Z,72.66
2023-03-06T01:57:18.089Z,72.73
2023-03-06T01:59:48.771Z,72.41
2023-03-06T02:02:16.482Z,72.16
2023-03-06T02:04:44.292Z,72.12
2023-03-06T02:07:12.330Z,71.62
2023-03-06T02:09:39.945Z,72.38
2023-03-06T02:12:15.568Z,72.68
2023-03-06T02:14:43.688Z,73.09
2023-03-06T02:17:13.280Z,72.43
2023-03-06T02:20:03.750Z,71.46
2023-03-06T02:23:01.053Z,70.80
2023-03-06T02:25:32.073Z,70.89
2023-03-06T02:28:01.687Z,72.58
2023-03-06T02:30:31.571Z,71.33
2023-03-06T02:32:59.026Z,70.57
2023-03-06T02:35:30.346Z,70.10
2023-03-06T02:37:59.353Z,70.92
2023-03-06T02:40:26.737Z,69.55
2023-03-06T02:42:58.612Z,69.96
2023-03-06T02:45:42.614Z,70.63
2023-03-06T02:48:10.132Z,71.49
2023-03-06T02:50:37.795Z,70.81
2023-03-06T02:53:05.971Z,69.63
2023-03-06T02:55:33.984Z,67.39
2023-03-06T02:58:02.149Z,69.16
2023-03-06T03:00:30.472Z,69.71
2023-03-06T03:02:58.032Z,69.53
2023-03-06T03:05:26.516Z,68.83
2023-03-06T03:08:00.105Z,67.75
2023-03-06T03:10:28.620Z,67.06
2023-03-06T03:12:56.127Z,67.44
2023-03-06T03:15:25.478Z,66.84
2023-03-06T03:17:53.178Z,66.99
2023-03-06T03:20:22.064Z,67.90
2023-03-06T03:22:51.318Z,67.34
2023-03-06T03:25:19.709Z,67.06
2023-03-06T03:27:47.782Z,69.37
2023-03-06T03:30:15.858Z,69.74
2023-03-06T03:32:43.830Z,70.79
2023-03-06T03:35:13.169Z,70.61
2023-03-06T03:37:44.929Z,70.07
2023-03-06T03:40:13.298Z,71.13
2023-03-06T03:42:40.965Z,72.15
2023-03-06T03:45:11.686Z,71.64
2023-03-06T03:47:40.778Z,70.65
2023-03-06T03:50:09.144Z,73.53
2023-03-06T03:52:37.339Z,72.24
2023-03-06T03:55:05.552Z,73.26
2023-03-06T03:57:33.374Z,73.35
2023-03-06T04:00:01.774Z,72.60
2023-03-06T04:02:42.149Z,73.40
2023-03-06T04:05:24.352Z,73.50
2023-03-06T04:07:51.600Z,73.55
2023-03-06T04:10:19.785Z,74.07
2023-03-06T04:12:50.626Z,74.30
2023-03-06T04:15:18.173Z,73.89
2023-03-06T04:17:47.207Z,73.65
2023-03-06T04:20:18.515Z,74.51
2023-03-06T04:22:47.365Z,73.67
2023-03-06T04:25:14.758Z,74.67
2023-03-06T04:27:42.270Z,73.73
2023-03-06T04:30:14.033Z,75.21
2023-03-06T04:32:41.865Z,76.04
2023-03-06T04:35:12.632Z,76.23
2023-03-06T04:37:50.886Z,75.55
2023-03-06T04:40:29.544Z,74.68
2023-03-06T04:42:58.773Z,75.03
2023-03-06T04:45:27.511Z,74.60
2023-03-06T04:47:55.397Z,73.88
2023-03-06T04:50:24.065Z,73.30
2023-03-06T04:52:52.056Z,73.00
2023-03-06T04:55:19.922Z,71.99
2023-03-06T04:57:47.754Z,72.45
2023-03-06T05:00:19.391Z,71.46
2023-03-06T05:02:47.047Z,71.01
2023-03-06T05:05:15.245Z,71.36
2023-03-06T05:07:42.778Z,72.45
2023-03-06T05:10:15.337Z,72.16
2023-03-06T05:12:43.113Z,72.28
2023-03-06T05:15:11.717Z,72.87
2023-03-06T05:17:39.115Z,72.48
2023-03-06T05:20:09.731Z,72.78
2023-03-06T05:22:37.174Z,72.44
2023-03-06T05:25:05.306Z,72.72
2023-03-06T05:27:32.671Z,73.44
2023-03-06T05:30:00.132Z,74.14
2023-03-06T05:32:27.692Z,73.53
2023-03-06T05:34:55.332Z,73.46
2023-03-06T05:37:23.250Z,74.03
2023-03-06T05:39:51.076Z,73.39
2023-03-06T05:42:18.834Z,72.61
2023-03-06T05:44:46.615Z,72.81
2023-03-06T05:47:14.299Z,72.13
2023-03-06T05:49:41.592Z,71.16
2023-03-06T05:52:09.114Z,71.24
2023-03-06T05:54:37.277Z,71.17
2023-03-06T05:57:05.333Z,70.80
2023-03-06T05:59:33.289Z,70.67
2023-03-06T06:02:01.229Z,70.09
2023-03-06T06:04:28.603Z,69.69
2023-03-06T06:06:58.005Z,69.40
2023-03-06T06:09:26.140Z,68.39
2023-03-06T06:11:56.211Z,68.66
2023-03-06T06:14:23.889Z,69.26
2023-03-06T06:16:51.954Z,69.40
2023-03-06T06:19:20.225Z,68.49
2023-03-06T06:21:49.916Z,68.70
2023-03-06T06:24:19.397Z,67.88
2023-03-06T06:26:47.332Z,68.08
2023-03-06T06:29:14.852Z,68.35
2023-03-06T06:31:42.442Z,68.40
2023-03-06T06:34:11.495Z,67.48
2023-03-06T06:36:39.587Z,67.62
2023-03-06T06:39:08.103Z,67.40
2023-03-06T06:41:59.501Z,67.35
2023-03-06T06:44:23.197Z,67.22
2023-03-06T06:47:21.378Z,68.01
2023-03-06T06:49:38.162Z,68.64
2023-03-06T06:52:06.297Z,68.12
2023-03-06T06:54:36.842Z,68.48
2023-03-06T06:57:04.240Z,68.98
2023-03-06T06:59:31.835Z,69.30
2023-03-06T07:01:59.150Z,68.82
2023-03-06T07:04:26.392Z,70.06
2023-03-06T07:06:56.170Z,70.32
2023-03-06T07:09:23.787Z,70.67
2023-03-06T07:11:51.171Z,70.08
2023-03-06T07:14:18.689Z,70.00
2023-03-06T07:16:46.104Z,70.17
2023-03-06T07:19:13.505Z,70.71
2023-03-06T07:21:40.923Z,70.93
2023-03-06T07:24:08.349Z,71.02
2023-03-06T07:26:35.834Z,70.59
2023-03-06T07:29:05.863Z,70.54
2023-03-06T07:31:35.482Z,70.71
2023-03-06T07:34:04.896Z,69.65
2023-03-06T07:36:33.914Z,69.28
2023-03-06T07:39:01.391Z,68.89
2023-03-06T07:41:28.644Z,68.90
2023-03-06T07:43:55.947Z,68.58
2023-03-06T07:46:23.521Z,68.03
2023-03-06T07:48:51.023Z,68.56
2023-03-06T07:51:20.645Z,74.31
2023-03-06T07:53:49.011Z,68.64
2023-03-06T07:56:16.541Z,66.26
2023-03-06T07:58:45.630Z,62.71
2023-03-06T08:01:16.206Z,64.25
2023-03-06T08:03:44.127Z,65.20
2023-03-06T08:06:14.262Z,65.58
2023-03-06T08:08:42.041Z,67.33
2023-03-06T08:11:11.064Z,67.14
2023-03-06T08:13:39.112Z,66.75
2023-03-06T08:16:07.111Z,67.38
2023-03-06T08:18:35.001Z,67.38
2023-03-06T08:21:06.930Z,67.43
2023-03-06T08:23:35.109Z,68.20
2023-03-06T08:26:05.900Z,68.64
2023-03-06T08:28:33.429Z,68.63
2023-03-06T08:31:08.896Z,67.58
2023-03-06T08:33:36.853Z,66.50
2023-03-06T08:36:04.808Z,66.07
2023-03-06T08:38:32.199Z,65.95
2023-03-06T08:40:59.631Z,65.81
2023-03-06T08:43:27.191Z,65.17
2023-03-06T08:45:56.304Z,64.84
2023-03-06T08:48:24.159Z,64.20
2023-03-06T08:50:51.678Z,65.42
2023-03-06T08:53:19.103Z,66.11
2023-03-06T08:55:46.800Z,65.24
2023-03-06T08:58:14.216Z,68.19
2023-03-06T09:00:41.574Z,68.23
2023-03-06T09:03:09.276Z,67.43
2023-03-06T09:05:37.060Z,67.62
2023-03-06T09:08:05.066Z,67.95
2023-03-06T09:10:32.352Z,68.33
2023-03-06T09:12:59.781Z,67.90
2023-03-06T09:15:27.347Z,68.36
2023-03-06T09:17:54.882Z,69.04
2023-03-06T09:20:22.278Z,68.68
2023-03-06T09:22:49.560Z,68.27
2023-03-06T09:25:22.509Z,67.73
2023-03-06T09:28:01.814Z,67.82
2023-03-06T09:30:36.645Z,67.55
2023-03-06T09:33:04.200Z,66.06
2023-03-06T09:35:31.785Z,66.11
2023-03-06T09:37:59.109Z,66.33
2023-03-06T09:40:51.857Z,67.62
2023-03-06T09:43:22.232Z,67.61
2023-03-06T09:45:49.644Z,67.52
2023-03-06T09:48:17.863Z,67.51
2023-03-06T09:50:51.963Z,68.74
2023-03-06T09:53:39.143Z,68.73
2023-03-06T09:56:16.901Z,67.44
2023-03-06T09:58:48.902Z,66.62
2023-03-06T10:01:19.397Z,67.11
2023-03-06T10:03:58.394Z,66.66
2023-03-06T10:06:36.691Z,65.26
2023-03-06T10:09:14.161Z,63.60
2023-03-06T10:11:53.110Z,64.51
2023-03-06T10:14:29.543Z,63.94
2023-03-06T10:16:58.508Z,64.07
2023-03-06T10:19:36.618Z,63.16
2023-03-06T10:22:04.207Z,63.90
2023-03-06T10:24:51.362Z,63.05
2023-03-06T10:27:34.949Z,62.81
2023-03-06T10:30:33.470Z,61.04
2023-03-06T10:33:30.112Z,60.04
2023-03-06T10:35:58.232Z,60.12
2023-03-06T10:38:31.729Z,59.75
2023-03-06T10:41:14.532Z,53.47
2023-03-06T10:43:44.182Z,55.03
2023-03-06T10:46:14.629Z,55.41
2023-03-06T10:48:42.711Z,55.77
2023-03-06T10:51:19.152Z,54.82
2023-03-06T10:53:57.609Z,55.05
2023-03-06T10:56:34.824Z,55.33
2023-03-06T10:59:25.356Z,54.90
2023-03-06T11:01:57.910Z,56.53
2023-03-06T11:04:33.604Z,58.23
2023-03-06T11:07:11.972Z,57.56
2023-03-06T11:09:39.486Z,55.86
2023-03-06T11:12:27.838Z,55.10
2023-03-06T11:15:10.282Z,53.42
2023-03-06T11:17:49.317Z,50.98
2023-03-06T11:20:27.037Z,51.73
2023-03-06T11:23:13.275Z,52.22
2023-03-06T11:25:43.701Z,52.65
2023-03-06T11:28:40.366Z,51.11
2023-03-06T11:31:16.026Z,52.04
2023-03-06T11:33:59.024Z,52.75
2023-03-06T11:36:31.607Z,52.74
2023-03-06T11:38:59.586Z,52.97
2023-03-06T11:41:37.344Z,52.24
2023-03-06T11:44:19.948Z,53.00
2023-03-06T11:46:51.145Z,53.46
2023-03-06T11:49:29.188Z,52.78
2023-03-06T11:51:59.655Z,51.84
2023-03-06T11:54:29.370Z,53.76
2023-03-06T11:57:00.192Z,53.13
2023-03-06T11:59:30.499Z,55.10
2023-03-06T12:02:30.975Z,55.18
2023-03-06T12:05:10.611Z,55.34
2023-03-06T12:08:16.954Z,55.24
2023-03-06T12:13:55.410Z,55.75
2023-03-06T12:16:35.348Z,55.11
2023-03-06T12:19:27.625Z,55.91
2023-03-06T12:22:31.296Z,54.85
2023-03-06T12:25:28.430Z,55.07
2023-03-06T12:28:11.187Z,55.32
2023-03-06T12:31:03.149Z,56.19
2023-03-06T12:33:52.267Z,57.46
2023-03-06T12:36:31.882Z,58.62
2023-03-06T12:39:35.701Z,59.48
2023-03-06T12:42:22.612Z,58.41
2023-03-06T12:45:04.413Z,59.50
2023-03-06T12:47:34.354Z,59.37
2023-03-06T12:50:07.627Z,58.46
2023-03-06T12:52:35.667Z,58.31
2023-03-06T12:55:06.752Z,58.99
2023-03-06T12:57:34.101Z,59.45
2023-03-06T13:00:01.593Z,59.85
2023-03-06T13:02:56.755Z,59.19
2023-03-06T13:05:31.673Z,58.79
2023-03-06T13:08:39.833Z,59.40
2023-03-06T13:11:17.570Z,58.86
2023-03-06T13:13:46.508Z,58.47
2023-03-06T13:16:13.931Z,58.48
2023-03-06T13:18:49.143Z,58.41
2023-03-06T13:21:42.634Z,59.47
2023-03-06T13:24:26.827Z,59.29
2023-03-06T13:26:55.788Z,59.01
2023-03-06T13:29:38.483Z,59.64
2023-03-06T13:32:13.659Z,60.13
2023-03-06T13:34:43.110Z,60.50
2023-03-06T13:37:20.081Z,58.83
2023-03-06T13:39:59.836Z,58.81
2023-03-06T13:42:29.725Z,57.24
2023-03-06T13:44:58.646Z,57.43
2023-03-06T13:47:59.004Z,58.37
2023-03-06T13:50:35.827Z,58.71
2023-03-06T13:53:46.694Z,59.38
2023-03-06T13:56:32.633Z,59.56
2023-03-06T13:59:32.258Z,58.85
2023-03-06T14:02:38.747Z,58.42
2023-03-06T14:05:17.564Z,57.68
2023-03-06T14:08:03.441Z,57.79
2023-03-06T14:10:34.687Z,58.02
2023-03-06T14:13:06.331Z,58.25
2023-03-06T14:15:42.429Z,57.17
2023-03-06T14:18:12.697Z,57.50
2023-03-06T14:20:40.089Z,58.46
2023-03-06T14:23:30.513Z,58.32
2023-03-06T14:26:00.929Z,57.93
2023-03-06T14:28:30.462Z,58.11
2023-03-06T14:31:00.182Z,58.64
2023-03-06T14:33:32.666Z,59.23
2023-03-06T14:36:03.815Z,59.95
2023-03-06T14:38:35.743Z,59.68
2023-03-06T14:41:05.346Z,58.35
2023-03-06T14:43:32.955Z,58.13
2023-03-06T14:46:02.617Z,58.41
2023-03-06T14:48:42.236Z,58.75
2023-03-06T14:51:23.568Z,57.97
2023-03-06T14:53:52.706Z,57.75
2023-03-06T14:56:25.624Z,57.55
2023-03-06T14:59:03.338Z,58.40
2023-03-06T15:01:50.246Z,57.77
2023-03-06T15:04:47.772Z,59.01
2023-03-06T15:07:18.803Z,59.17
2023-03-06T15:09:49.823Z,58.61
2023-03-06T15:12:20.260Z,57.79
2023-03-06T15:14:59.712Z,59.39
2023-03-06T15:17:27.123Z,59.43
2023-03-06T15:19:56.367Z,58.56
2023-03-06T15:22:30.987Z,57.76
2023-03-06T15:25:20.618Z,58.15
2023-03-06T15:27:51.048Z,58.19
2023-03-06T15:30:29.689Z,57.92
2023-03-06T15:33:26.053Z,58.52
2023-03-06T15:36:04.519Z,57.88
2023-03-06T15:38:34.333Z,57.53
2023-03-06T15:41:03.552Z,57.38
2023-03-06T15:43:39.437Z,57.01
2023-03-06T15:46:07.808Z,55.55
2023-03-06T15:48:35.629Z,55.77
2023-03-06T15:51:03.697Z,56.65
2023-03-06T15:53:31.183Z,57.41
2023-03-06T15:55:58.823Z,56.76
2023-03-06T15:58:26.986Z,56.93
2023-03-06T16:00:54.317Z,56.43
2023-03-06T16:03:21.722Z,56.21
2023-03-06T16:05:49.159Z,55.71
2023-03-06T16:08:16.893Z,54.93
2023-03-06T16:10:44.776Z,54.37
2023-03-06T16:13:15.494Z,54.26
2023-03-06T16:15:47.418Z,54.23
2023-03-06T16:18:14.932Z,54.78
2023-03-06T16:20:42.557Z,54.63
2023-03-06T16:23:10.912Z,54.30
2023-03-06T16:25:41.505Z,54.17
2023-03-06T16:28:14.380Z,54.27
2023-03-06T16:30:43.295Z,53.91
2023-03-06T16:33:13.331Z,53.54
2023-03-06T16:35:41.266Z,53.73
2023-03-06T16:38:10.267Z,53.34
2023-03-06T16:40:41.147Z,52.92
2023-03-06T16:43:10.548Z,53.56
2023-03-06T16:45:39.664Z,53.70
2023-03-06T16:48:07.867Z,53.55
2023-03-06T16:50:40.086Z,54.17
2023-03-06T16:53:08.209Z,53.53
2023-03-06T16:55:35.558Z,54.01
2023-03-06T16:58:02.934Z,54.33
2023-03-06T17:00:33.176Z,54.42
2023-03-06T17:03:01.700Z,54.01
2023-03-06T17:05:29.555Z,53.55
2023-03-06T17:07:57.000Z,53.56
2023-03-06T17:10:26.547Z,52.90
2023-03-06T17:12:54.385Z,53.53
2023-03-06T17:15:21.881Z,52.99
2023-03-06T17:17:49.362Z,53.30
2023-03-06T17:20:17.137Z,53.54
2023-03-06T17:22:44.658Z,52.49
2023-03-06T17:25:12.084Z,52.12
2023-03-06T17:27:39.560Z,51.96
2023-03-06T17:30:07.547Z,51.75
2023-03-06T17:32:35.258Z,50.60
2023-03-06T17:35:02.539Z,51.53
2023-03-06T17:37:29.792Z,52.02
2023-03-06T17:39:57.104Z,51.70
2023-03-06T17:42:24.534Z,52.19
2023-03-06T17:44:53.060Z,51.75
2023-03-06T17:47:20.357Z,51.62
2023-03-06T17:49:47.860Z,50.79
2023-03-06T17:52:15.169Z,51.00
2023-03-06T17:54:42.687Z,50.83
2023-03-06T17:57:09.961Z,50.73
2023-03-06T17:59:37.496Z,51.50
2023-03-06T18:02:06.390Z,51.56
2023-03-06T18:04:33.913Z,52.54
2023-03-06T18:07:01.249Z,52.04
2023-03-06T18:09:28.549Z,51.73
2023-03-06T18:11:55.930Z,51.65
2023-03-06T18:14:23.450Z,51.56
2023-03-06T18:16:50.950Z,51.93
2023-03-06T18:19:18.378Z,51.82
2023-03-06T18:21:47.416Z,51.28
2023-03-06T18:24:14.797Z,51.35
2023-03-06T18:26:43.044Z,50.80
2023-03-06T18:29:10.997Z,50.63
2023-03-06T18:31:40.526Z,50.87
2023-03-06T18:34:17.553Z,50.12
2023-03-06T18:36:47.352Z,50.22
2023-03-06T18:39:15.880Z,50.27
2023-03-06T18:41:43.207Z,49.66
2023-03-06T18:44:15.790Z,49.69
2023-03-06T18:46:43.836Z,49.30
2023-03-06T18:49:12.551Z,50.21
2023-03-06T18:51:40.189Z,50.07
2023-03-06T18:54:07.980Z,49.77
2023-03-06T18:56:35.482Z,50.47
2023-03-06T18:59:04.709Z,50.59
2023-03-06T19:01:32.571Z,50.73
2023-03-06T19:04:02.060Z,50.52
2023-03-06T19:06:29.629Z,50.57
2023-03-06T19:08:58.835Z,50.25
2023-03-06T19:11:27.122Z,50.41
2023-03-06T19:13:55.034Z,49.87
2023-03-06T19:16:24.526Z,49.96
2023-03-06T19:18:52.461Z,49.96
2023-03-06T19:21:21.184Z,49.84
2023-03-06T19:23:49.750Z,49.52
2023-03-06T19:26:20.841Z,49.54
2023-03-06T19:28:48.783Z,49.55
2023-03-06T19:31:21.448Z,49.83
2023-03-06T19:33:49.638Z,49.95
2023-03-06T19:36:18.437Z,49.87
2023-03-06T19:38:50.514Z,49.84
2023-03-06T19:41:18.284Z,49.28
2023-03-06T19:43:51.041Z,49.21
2023-03-06T19:46:18.994Z,48.61
2023-03-06T19:48:46.377Z,48.67
2023-03-06T19:51:14.041Z,48.97
2023-03-06T19:53:41.382Z,49.46
2023-03-06T19:56:09.789Z,49.92
2023-03-06T19:58:37.750Z,49.86
2023-03-06T20:01:06.161Z,49.52
2023-03-06T20:03:33.685Z,49.51
2023-03-06T20:06:01.640Z,49.64
2023-03-06T20:08:29.472Z,49.65
2023-03-06T20:10:56.882Z,49.72
2023-03-06T20:13:24.867Z,49.26
2023-03-06T20:15:52.308Z,49.47
2023-03-06T20:18:19.768Z,49.54
2023-03-06T20:21:00.766Z,49.71
2023-03-06T20:23:29.010Z,49.64
2023-03-06T20:25:56.396Z,50.34
2023-03-06T20:28:23.786Z,50.38
2023-03-06T20:30:51.202Z,50.20
2023-03-06T20:33:21.169Z,50.26
2023-03-06T20:35:48.921Z,51.33
2023-03-06T20:38:16.180Z,51.29
2023-03-06T20:40:43.863Z,52.16
2023-03-06T20:43:11.421Z,52.75
2023-03-06T20:45:38.893Z,53.35
2023-03-06T20:48:06.309Z,53.72
2023-03-06T20:50:33.665Z,53.75
2023-03-06T20:53:01.092Z,53.82
2023-03-06T20:55:28.712Z,54.09
2023-03-06T20:57:56.029Z,53.00
2023-03-06T21:00:23.281Z,53.08
2023-03-06T21:02:50.602Z,53.29
2023-03-06T21:05:18.048Z,53.46
2023-03-06T21:07:45.425Z,53.79
2023-03-06T21:10:14.566Z,54.78
2023-03-06T21:12:41.858Z,54.23
2023-03-06T21:15:09.543Z,54.03
2023-03-06T21:17:39.859Z,54.36
2023-03-06T21:20:07.992Z,54.61
2023-03-06T21:22:35.653Z,54.55
2023-03-06T21:25:03.712Z,54.78
2023-03-06T21:27:31.043Z,54.79
2023-03-06T21:29:58.244Z,55.09
2023-03-06T21:32:25.582Z,54.94
2023-03-06T21:34:53.043Z,55.78
2023-03-06T21:37:20.517Z,55.31
2023-03-06T21:39:48.058Z,55.53
2023-03-06T21:42:15.347Z,55.53
2023-03-06T21:44:42.597Z,55.37
2023-03-06T21:47:10.034Z,55.19
2023-03-06T21:49:37.549Z,54.81
2023-03-06T21:52:05.365Z,55.22
2023-03-06T21:54:32.586Z,55.01
2023-03-06T21:57:00.048Z,55.02
2023-03-06T21:59:27.473Z,55.25
2023-03-06T22:01:54.872Z,55.55
2023-03-06T22:04:22.159Z,56.05
2023-03-06T22:06:49.855Z,56.45
2023-03-06T22:09:19.098Z,57.36
2023-03-06T22:11:46.590Z,56.99
2023-03-06T22:14:14.786Z,57.51
2023-03-06T22:16:42.250Z,57.77
2023-03-06T22:19:09.740Z,58.00
2023-03-06T22:21:38.594Z,58.24
2023-03-06T22:24:06.274Z,57.75
2023-03-06T22:26:33.538Z,57.19
2023-03-06T22:29:00.908Z,58.05
2023-03-06T22:31:29.138Z,57.72
2023-03-06T22:33:58.517Z,57.25
2023-03-06T22:36:26.123Z,58.58
2023-03-06T22:38:55.645Z,59.58
2023-03-06T22:41:23.572Z,59.66
2023-03-06T22:43:50.950Z,58.90
2023-03-06T22:46:18.371Z,58.07
2023-03-06T22:48:46.018Z,58.92
2023-03-06T22:51:16.021Z,58.80
2023-03-06T22:53:44.234Z,59.43
2023-03-06T22:56:14.846Z,58.96
2023-03-06T22:58:44.662Z,59.20
2023-03-06T23:01:23.442Z,59.09
2023-03-06T23:03:53.108Z,58.97
2023-03-06T23:06:35.210Z,59.44
2023-03-06T23:09:06.957Z,59.34
2023-03-06T23:11:52.565Z,59.39
2023-03-06T23:14:38.436Z,60.36
2023-03-06T23:17:24.963Z,59.78
2023-03-06T23:20:12.065Z,59.91
2023-03-06T23:22:58.142Z,60.48
2023-03-06T23:25:44.374Z,60.33
2023-03-06T23:28:12.338Z,60.66
2023-03-06T23:30:40.095Z,60.50
2023-03-06T23:33:08.167Z,60.97
2023-03-06T23:35:36.880Z,61.15
2023-03-06T23:38:04.659Z,61.09
2023-03-06T23:40:33.599Z,60.74
2023-03-06T23:43:01.114Z,61.14
2023-03-06T23:45:28.439Z,60.78
2023-03-06T23:47:56.399Z,61.14
2023-03-06T23:50:26.082Z,61.18
2023-03-06T23:52:54.380Z,61.33
2023-03-06T23:55:22.149Z,61.04
2023-03-06T23:57:49.634Z,60.84
